Terminal Aerodrome Forecast
Issued by NWS

Home | Current Version | Previous Version | Graphics & Text | Print | Product List | Glossary On
Versions: 1 2 3 4 5 6 7 8 9 10 11 12 13 14 15 16 17 18 19 20 21 22 23 24 25 26 27 28 29 30 31 32
000
FTUS43 KGRB 260708 AAA
TAFRHI
TAF AMD
KRHI 260708Z 2607/2706 VRB03KT 2SM BR SCT002
      TEMPO 2607/2611 1/2SM FG BKN002
     FM261200 23003KT 5SM BR FEW002
     FM261330 24005KT P6SM SCT070 BKN200=

USA.gov is the U.S. government's official web portal to all federal, state and local government web resources and services.